sensor_id;sensor_type;location;lat;lon;timestamp;pressure;altitude;pressure_sealevel;temperature;humidity
23616;BME280;11985;49.404;7.734;2023-06-26T00:01:20;97258.06;;;16.62;75.34
23616;BME280;11985;49.404;7.734;2023-06-26T00:06:24;97253.47;;;16.57;75.95
23616;BME280;11985;49.404;7.734;2023-06-26T00:11:26;97246.16;;;16.48;76.15
23616;BME280;11985;49.404;7.734;2023-06-26T00:16:30;97247.13;;;16.42;76.46
23616;BME280;11985;49.404;7.734;2023-06-26T00:21:33;97248.66;;;16.37;76.95
23616;BME280;11985;49.404;7.734;2023-06-26T00:26:35;97239.00;;;16.31;77.23
23616;BME280;11985;49.404;7.734;2023-06-26T00:31:36;97233.59;;;16.26;77.80
23616;BME280;11985;49.404;7.734;2023-06-26T00:36:39;97231.69;;;16.22;78.25
23616;BME280;11985;49.404;7.734;2023-06-26T00:41:43;97232.41;;;16.17;78.70
23616;BME280;11985;49.404;7.734;2023-06-26T00:46:45;97223.78;;;16.10;78.86
23616;BME280;11985;49.404;7.734;2023-06-26T00:51:48;97218.41;;;16.05;79.15
23616;BME280;11985;49.404;7.734;2023-06-26T00:56:50;97226.28;;;16.00;79.43
23616;BME280;11985;49.404;7.734;2023-06-26T01:01:52;97224.34;;;15.95;80.30
23616;BME280;11985;49.404;7.734;2023-06-26T01:06:55;97224.03;;;15.92;80.89
23616;BME280;11985;49.404;7.734;2023-06-26T01:11:57;97220.22;;;15.88;81.65
23616;BME280;11985;49.404;7.734;2023-06-26T01:17:00;97216.94;;;15.80;81.91
23616;BME280;11985;49.404;7.734;2023-06-26T01:22:13;97220.53;;;15.74;81.98
23616;BME280;11985;49.404;7.734;2023-06-26T01:27:18;97214.91;;;15.71;82.58
23616;BME280;11985;49.404;7.734;2023-06-26T01:32:22;97211.34;;;15.65;83.12
23616;BME280;11985;49.404;7.734;2023-06-26T01:37:24;97208.00;;;15.58;83.50
23616;BME280;11985;49.404;7.734;2023-06-26T01:42:27;97202.31;;;15.49;83.92
23616;BME280;11985;49.404;7.734;2023-06-26T01:47:30;97193.44;;;15.44;84.64
23616;BME280;11985;49.404;7.734;2023-06-26T01:52:38;97196.00;;;15.39;85.27
23616;BME280;11985;49.404;7.734;2023-06-26T01:57:43;97203.13;;;15.21;85.68
23616;BME280;11985;49.404;7.734;2023-06-26T02:02:46;97198.63;;;15.10;86.62
23616;BME280;11985;49.404;7.734;2023-06-26T02:07:48;97192.66;;;15.03;87.58
23616;BME280;11985;49.404;7.734;2023-06-26T02:12:51;97194.34;;;14.81;87.73
23616;BME280;11985;49.404;7.734;2023-06-26T02:17:52;97198.09;;;14.56;88.35
23616;BME280;11985;49.404;7.734;2023-06-26T02:22:54;97208.31;;;14.41;89.47
23616;BME280;11985;49.404;7.734;2023-06-26T02:27:57;97199.22;;;14.25;90.52
23616;BME280;11985;49.404;7.734;2023-06-26T02:32:58;97199.69;;;14.34;91.98
23616;BME280;11985;49.404;7.734;2023-06-26T02:38:00;97196.00;;;14.35;92.55
23616;BME280;11985;49.404;7.734;2023-06-26T02:43:03;97201.84;;;14.37;93.04
23616;BME280;11985;49.404;7.734;2023-06-26T02:48:05;97197.25;;;14.44;93.88
23616;BME280;11985;49.404;7.734;2023-06-26T02:53:06;97192.19;;;14.54;94.67
23616;BME280;11985;49.404;7.734;2023-06-26T02:58:10;97193.91;;;14.60;95.42
23616;BME280;11985;49.404;7.734;2023-06-26T03:03:11;97206.16;;;14.61;95.51
23616;BME280;11985;49.404;7.734;2023-06-26T03:08:13;97205.34;;;14.61;95.43
23616;BME280;11985;49.404;7.734;2023-06-26T03:13:16;97199.13;;;14.55;95.39
23616;BME280;11985;49.404;7.734;2023-06-26T03:18:18;97223.72;;;14.32;95.29
23616;BME280;11985;49.404;7.734;2023-06-26T03:23:20;97216.38;;;14.22;95.99
23616;BME280;11985;49.404;7.734;2023-06-26T03:28:22;97210.84;;;14.24;96.78
23616;BME280;11985;49.404;7.734;2023-06-26T03:33:24;97205.91;;;14.27;97.24
23616;BME280;11985;49.404;7.734;2023-06-26T03:38:26;97199.88;;;14.32;97.49
23616;BME280;11985;49.404;7.734;2023-06-26T03:43:29;97208.66;;;14.33;97.70
23616;BME280;11985;49.404;7.734;2023-06-26T03:48:30;97206.59;;;14.35;97.84
23616;BME280;11985;49.404;7.734;2023-06-26T03:53:32;97212.25;;;14.38;98.26
23616;BME280;11985;49.404;7.734;2023-06-26T03:58:35;97202.34;;;14.57;98.43
23616;BME280;11985;49.404;7.734;2023-06-26T04:03:36;97214.16;;;14.90;98.60
23616;BME280;11985;49.404;7.734;2023-06-26T04:08:38;97211.81;;;15.05;98.48
23616;BME280;11985;49.404;7.734;2023-06-26T04:13:41;97209.84;;;15.12;98.34
23616;BME280;11985;49.404;7.734;2023-06-26T04:18:42;97212.91;;;15.21;98.54
23616;BME280;11985;49.404;7.734;2023-06-26T04:23:44;97209.09;;;15.28;98.69
23616;BME280;11985;49.404;7.734;2023-06-26T04:28:47;97220.97;;;15.26;98.92
23616;BME280;11985;49.404;7.734;2023-06-26T04:33:48;97214.00;;;15.37;99.12
23616;BME280;11985;49.404;7.734;2023-06-26T04:38:51;97213.88;;;15.60;99.03
23616;BME280;11985;49.404;7.734;2023-06-26T04:43:54;97216.19;;;15.68;99.03
23616;BME280;11985;49.404;7.734;2023-06-26T04:48:55;97213.31;;;15.87;99.38
23616;BME280;11985;49.404;7.734;2023-06-26T04:53:58;97218.63;;;16.20;99.56
23616;BME280;11985;49.404;7.734;2023-06-26T04:59:01;97208.41;;;16.68;98.88
23616;BME280;11985;49.404;7.734;2023-06-26T05:04:03;97211.34;;;17.10;97.77
23616;BME280;11985;49.404;7.734;2023-06-26T05:09:05;97208.50;;;17.38;96.12
23616;BME280;11985;49.404;7.734;2023-06-26T05:14:08;97208.78;;;17.69;94.95
23616;BME280;11985;49.404;7.734;2023-06-26T05:19:09;97212.81;;;17.99;93.92
23616;BME280;11985;49.404;7.734;2023-06-26T05:24:12;97213.66;;;18.41;92.29
23616;BME280;11985;49.404;7.734;2023-06-26T05:29:16;97210.75;;;18.85;88.67
23616;BME280;11985;49.404;7.734;2023-06-26T05:34:19;97215.44;;;19.31;85.48
23616;BME280;11985;49.404;7.734;2023-06-26T05:39:24;97221.44;;;19.68;81.22
23616;BME280;11985;49.404;7.734;2023-06-26T05:44:27;97228.72;;;19.93;78.17
23616;BME280;11985;49.404;7.734;2023-06-26T05:49:28;97228.69;;;20.19;75.74
23616;BME280;11985;49.404;7.734;2023-06-26T05:54:30;97228.16;;;20.52;74.54
23616;BME280;11985;49.404;7.734;2023-06-26T05:59:36;97238.81;;;20.73;73.44
23616;BME280;11985;49.404;7.734;2023-06-26T06:04:38;97238.25;;;20.81;71.61
23616;BME280;11985;49.404;7.734;2023-06-26T06:09:39;97239.25;;;21.11;71.23
23616;BME280;11985;49.404;7.734;2023-06-26T06:14:42;97237.03;;;21.28;69.96
23616;BME280;11985;49.404;7.734;2023-06-26T06:19:45;97237.00;;;21.43;69.18
23616;BME280;11985;49.404;7.734;2023-06-26T06:24:48;97235.22;;;21.73;68.22
23616;BME280;11985;49.404;7.734;2023-06-26T06:29:51;97239.22;;;22.09;67.07
23616;BME280;11985;49.404;7.734;2023-06-26T06:34:52;97244.03;;;22.18;66.25
23616;BME280;11985;49.404;7.734;2023-06-26T06:39:54;97240.69;;;22.31;65.21
23616;BME280;11985;49.404;7.734;2023-06-26T06:44:57;97239.56;;;22.37;64.72
23616;BME280;11985;49.404;7.734;2023-06-26T06:49:59;97254.97;;;22.55;64.64
23616;BME280;11985;49.404;7.734;2023-06-26T06:55:08;97255.50;;;22.57;63.98
23616;BME280;11985;49.404;7.734;2023-06-26T07:00:13;97260.78;;;22.67;63.47
23616;BME280;11985;49.404;7.734;2023-06-26T07:05:16;97250.66;;;23.12;63.49
23616;BME280;11985;49.404;7.734;2023-06-26T07:10:17;97264.03;;;23.17;63.05
23616;BME280;11985;49.404;7.734;2023-06-26T07:15:20;97264.44;;;22.77;62.43
23616;BME280;11985;49.404;7.734;2023-06-26T07:20:22;97273.19;;;22.58;62.62
23616;BME280;11985;49.404;7.734;2023-06-26T07:25:24;97282.72;;;22.46;62.99
23616;BME280;11985;49.404;7.734;2023-06-26T07:30:26;97279.28;;;22.69;63.26
23616;BME280;11985;49.404;7.734;2023-06-26T07:35:28;97280.69;;;22.61;63.18
23616;BME280;11985;49.404;7.734;2023-06-26T07:40:30;97288.75;;;22.61;63.82
23616;BME280;11985;49.404;7.734;2023-06-26T07:45:32;97287.88;;;22.71;63.66
23616;BME280;11985;49.404;7.734;2023-06-26T07:50:34;97299.16;;;22.68;63.93
23616;BME280;11985;49.404;7.734;2023-06-26T07:55:35;97299.19;;;22.34;63.70
23616;BME280;11985;49.404;7.734;2023-06-26T08:00:39;97309.97;;;22.58;64.46
23616;BME280;11985;49.404;7.734;2023-06-26T08:05:41;97316.41;;;22.91;65.20
23616;BME280;11985;49.404;7.734;2023-06-26T08:10:43;97322.63;;;23.39;65.08
23616;BME280;11985;49.404;7.734;2023-06-26T08:15:46;97327.16;;;23.87;64.59
23616;BME280;11985;49.404;7.734;2023-06-26T08:20:48;97312.25;;;24.13;63.39
23616;BME280;11985;49.404;7.734;2023-06-26T08:25:49;97329.47;;;23.75;62.20
23616;BME280;11985;49.404;7.734;2023-06-26T08:30:52;97333.13;;;23.60;62.86
23616;BME280;11985;49.404;7.734;2023-06-26T08:35:54;97331.16;;;24.08;62.84
23616;BME280;11985;49.404;7.734;2023-06-26T08:40:56;97337.41;;;24.60;62.18
23616;BME280;11985;49.404;7.734;2023-06-26T08:45:59;97322.56;;;25.09;61.40
23616;BME280;11985;49.404;7.734;2023-06-26T08:51:05;97335.75;;;25.11;60.07
23616;BME280;11985;49.404;7.734;2023-06-26T08:56:11;97338.94;;;24.47;59.08
23616;BME280;11985;49.404;7.734;2023-06-26T09:01:17;97330.00;;;24.52;59.32
23616;BME280;11985;49.404;7.734;2023-06-26T09:06:19;97341.06;;;24.97;58.61
23616;BME280;11985;49.404;7.734;2023-06-26T09:11:21;97348.44;;;24.78;57.53
23616;BME280;11985;49.404;7.734;2023-06-26T09:16:25;97349.88;;;24.70;57.53
23616;BME280;11985;49.404;7.734;2023-06-26T09:21:27;97350.72;;;24.52;57.30
23616;BME280;11985;49.404;7.734;2023-06-26T09:26:29;97344.81;;;24.68;57.41
23616;BME280;11985;49.404;7.734;2023-06-26T09:31:32;97343.75;;;25.16;56.40
23616;BME280;11985;49.404;7.734;2023-06-26T09:36:35;97349.75;;;25.40;55.98
23616;BME280;11985;49.404;7.734;2023-06-26T09:41:37;97349.16;;;25.85;55.16
23616;BME280;11985;49.404;7.734;2023-06-26T09:46:40;97349.91;;;26.49;54.01
23616;BME280;11985;49.404;7.734;2023-06-26T09:51:42;97351.63;;;26.67;52.96
23616;BME280;11985;49.404;7.734;2023-06-26T09:56:44;97353.81;;;26.88;52.08
23616;BME280;11985;49.404;7.734;2023-06-26T10:01:47;97356.78;;;26.55;51.14
23616;BME280;11985;49.404;7.734;2023-06-26T10:06:49;97353.56;;;26.53;50.65
23616;BME280;11985;49.404;7.734;2023-06-26T10:11:56;97357.38;;;26.52;48.88
23616;BME280;11985;49.404;7.734;2023-06-26T10:17:01;97368.25;;;26.24;48.17
23616;BME280;11985;49.404;7.734;2023-06-26T10:22:04;97364.53;;;26.34;47.72
23616;BME280;11985;49.404;7.734;2023-06-26T10:27:17;97367.47;;;26.60;46.84
23616;BME280;11985;49.404;7.734;2023-06-26T10:32:23;97343.00;;;26.88;45.75
23616;BME280;11985;49.404;7.734;2023-06-26T10:37:41;97350.22;;;27.23;44.83
23616;BME280;11985;49.404;7.734;2023-06-26T10:42:43;97346.81;;;27.49;44.35
23616;BME280;11985;49.404;7.734;2023-06-26T10:47:48;97346.66;;;27.14;43.73
23616;BME280;11985;49.404;7.734;2023-06-26T10:53:09;97357.91;;;27.07;43.78
23616;BME280;11985;49.404;7.734;2023-06-26T10:58:40;97365.44;;;26.88;42.91
23616;BME280;11985;49.404;7.734;2023-06-26T11:03:45;97355.41;;;26.89;42.67
23616;BME280;11985;49.404;7.734;2023-06-26T11:08:47;97364.19;;;27.25;41.99
23616;BME280;11985;49.404;7.734;2023-06-26T11:13:49;97380.47;;;26.80;41.37
23616;BME280;11985;49.404;7.734;2023-06-26T11:18:57;97393.50;;;26.78;41.55
23616;BME280;11985;49.404;7.734;2023-06-26T11:24:01;97382.31;;;26.71;41.71
23616;BME280;11985;49.404;7.734;2023-06-26T11:29:03;97374.63;;;26.65;41.69
23616;BME280;11985;49.404;7.734;2023-06-26T11:34:08;97387.94;;;27.06;41.45
23616;BME280;11985;49.404;7.734;2023-06-26T11:39:10;97380.81;;;27.32;40.47
23616;BME280;11985;49.404;7.734;2023-06-26T11:44:12;97390.78;;;27.63;40.58
23616;BME280;11985;49.404;7.734;2023-06-26T11:49:17;97385.31;;;27.46;40.17
23616;BME280;11985;49.404;7.734;2023-06-26T11:54:23;97391.81;;;27.45;40.00
23616;BME280;11985;49.404;7.734;2023-06-26T11:59:33;97399.41;;;27.34;38.62
23616;BME280;11985;49.404;7.734;2023-06-26T12:04:37;97389.69;;;26.79;39.12
23616;BME280;11985;49.404;7.734;2023-06-26T12:09:41;97393.16;;;27.02;39.74
23616;BME280;11985;49.404;7.734;2023-06-26T12:14:43;97387.78;;;27.33;39.55
23616;BME280;11985;49.404;7.734;2023-06-26T12:19:47;97385.16;;;27.20;39.61
23616;BME280;11985;49.404;7.734;2023-06-26T12:24:49;97396.00;;;27.59;38.95
23616;BME280;11985;49.404;7.734;2023-06-26T12:29:53;97388.34;;;27.53;37.32
23616;BME280;11985;49.404;7.734;2023-06-26T12:34:57;97396.81;;;27.60;36.41
23616;BME280;11985;49.404;7.734;2023-06-26T12:39:59;97395.06;;;27.24;35.87
23616;BME280;11985;49.404;7.734;2023-06-26T12:45:10;97396.78;;;27.20;35.28
23616;BME280;11985;49.404;7.734;2023-06-26T12:50:13;97403.81;;;26.99;34.42
23616;BME280;11985;49.404;7.734;2023-06-26T12:55:17;97394.84;;;27.43;34.10
23616;BME280;11985;49.404;7.734;2023-06-26T13:00:19;97394.72;;;27.17;33.22
23616;BME280;11985;49.404;7.734;2023-06-26T13:05:22;97390.56;;;27.11;32.91
23616;BME280;11985;49.404;7.734;2023-06-26T13:10:23;97390.16;;;27.26;32.45
23616;BME280;11985;49.404;7.734;2023-06-26T13:15:27;97394.59;;;27.31;31.58
23616;BME280;11985;49.404;7.734;2023-06-26T13:20:30;97408.53;;;27.47;31.09
23616;BME280;11985;49.404;7.734;2023-06-26T13:25:31;97410.91;;;27.48;30.31
23616;BME280;11985;49.404;7.734;2023-06-26T13:30:33;97418.28;;;27.25;29.49
23616;BME280;11985;49.404;7.734;2023-06-26T13:35:36;97415.56;;;27.03;29.76
23616;BME280;11985;49.404;7.734;2023-06-26T13:40:37;97411.66;;;27.09;30.13
23616;BME280;11985;49.404;7.734;2023-06-26T13:45:39;97418.59;;;26.79;29.79
23616;BME280;11985;49.404;7.734;2023-06-26T13:50:42;97422.22;;;26.97;29.44
23616;BME280;11985;49.404;7.734;2023-06-26T13:55:44;97414.19;;;26.83;29.35
23616;BME280;11985;49.404;7.734;2023-06-26T14:00:45;97427.97;;;26.59;29.60
23616;BME280;11985;49.404;7.734;2023-06-26T14:05:48;97438.03;;;26.31;29.45
23616;BME280;11985;49.404;7.734;2023-06-26T14:10:51;97440.81;;;26.40;28.18
23616;BME280;11985;49.404;7.734;2023-06-26T14:15:52;97440.81;;;26.40;27.84
23616;BME280;11985;49.404;7.734;2023-06-26T14:20:55;97439.16;;;26.02;27.88
23616;BME280;11985;49.404;7.734;2023-06-26T14:25:57;97445.44;;;26.25;28.08
23616;BME280;11985;49.404;7.734;2023-06-26T14:30:58;97428.00;;;26.31;28.47
23616;BME280;11985;49.404;7.734;2023-06-26T14:36:01;97428.38;;;26.66;28.53
23616;BME280;11985;49.404;7.734;2023-06-26T14:41:03;97424.59;;;27.43;28.63
23616;BME280;11985;49.404;7.734;2023-06-26T14:46:05;97414.63;;;27.21;28.22
23616;BME280;11985;49.404;7.734;2023-06-26T14:51:07;97426.22;;;26.41;28.10
23616;BME280;11985;49.404;7.734;2023-06-26T14:56:09;97438.72;;;25.54;28.02
23616;BME280;11985;49.404;7.734;2023-06-26T15:01:10;97433.94;;;25.51;28.10
23616;BME280;11985;49.404;7.734;2023-06-26T15:06:14;97437.28;;;25.75;29.12
23616;BME280;11985;49.404;7.734;2023-06-26T15:11:16;97445.66;;;26.15;29.59
23616;BME280;11985;49.404;7.734;2023-06-26T15:16:17;97429.97;;;26.67;30.02
23616;BME280;11985;49.404;7.734;2023-06-26T15:21:21;97432.56;;;26.58;30.26
23616;BME280;11985;49.404;7.734;2023-06-26T15:26:22;97425.91;;;26.78;30.50
23616;BME280;11985;49.404;7.734;2023-06-26T15:31:24;97418.72;;;26.74;30.46
23616;BME280;11985;49.404;7.734;2023-06-26T15:36:27;97429.59;;;26.60;30.92
23616;BME280;11985;49.404;7.734;2023-06-26T15:41:28;97417.03;;;26.42;31.28
23616;BME280;11985;49.404;7.734;2023-06-26T15:46:30;97418.94;;;26.41;31.95
23616;BME280;11985;49.404;7.734;2023-06-26T15:51:33;97424.72;;;26.35;32.23
23616;BME280;11985;49.404;7.734;2023-06-26T15:56:37;97427.13;;;26.50;32.61
23616;BME280;11985;49.404;7.734;2023-06-26T16:01:39;97408.41;;;26.40;32.45
23616;BME280;11985;49.404;7.734;2023-06-26T16:06:42;97428.91;;;26.54;33.14
23616;BME280;11985;49.404;7.734;2023-06-26T16:11:44;97419.03;;;26.95;33.22
23616;BME280;11985;49.404;7.734;2023-06-26T16:16:45;97425.03;;;26.69;33.47
23616;BME280;11985;49.404;7.734;2023-06-26T16:21:48;97427.69;;;25.97;34.28
23616;BME280;11985;49.404;7.734;2023-06-26T16:26:50;97422.72;;;25.76;34.89
23616;BME280;11985;49.404;7.734;2023-06-26T16:31:52;97426.78;;;25.60;35.40
23616;BME280;11985;49.404;7.734;2023-06-26T16:36:55;97433.31;;;25.54;35.69
23616;BME280;11985;49.404;7.734;2023-06-26T16:41:57;97424.88;;;25.61;35.66
23616;BME280;11985;49.404;7.734;2023-06-26T16:46:59;97424.00;;;25.19;35.57
23616;BME280;11985;49.404;7.734;2023-06-26T16:52:03;97423.41;;;24.70;36.38
23616;BME280;11985;49.404;7.734;2023-06-26T16:57:05;97426.34;;;24.55;36.95
23616;BME280;11985;49.404;7.734;2023-06-26T17:02:07;97429.25;;;24.40;37.27
23616;BME280;11985;49.404;7.734;2023-06-26T17:07:10;97448.97;;;24.35;37.67
23616;BME280;11985;49.404;7.734;2023-06-26T17:12:12;97444.38;;;24.73;37.65
23616;BME280;11985;49.404;7.734;2023-06-26T17:17:16;97448.63;;;24.61;37.68
23616;BME280;11985;49.404;7.734;2023-06-26T17:22:22;97454.22;;;24.45;38.08
23616;BME280;11985;49.404;7.734;2023-06-26T17:27:23;97452.78;;;24.29;37.89
23616;BME280;11985;49.404;7.734;2023-06-26T17:32:27;97462.25;;;24.27;38.27
23616;BME280;11985;49.404;7.734;2023-06-26T17:37:30;97465.00;;;24.21;38.34
23616;BME280;11985;49.404;7.734;2023-06-26T17:42:32;97457.94;;;23.83;38.47
23616;BME280;11985;49.404;7.734;2023-06-26T17:47:34;97480.31;;;23.49;39.10
23616;BME280;11985;49.404;7.734;2023-06-26T17:52:38;97473.63;;;23.41;39.33
23616;BME280;11985;49.404;7.734;2023-06-26T17:57:41;97476.16;;;22.99;39.64
23616;BME280;11985;49.404;7.734;2023-06-26T18:02:44;97491.63;;;22.73;40.03
23616;BME280;11985;49.404;7.734;2023-06-26T18:07:47;97498.41;;;22.60;40.56
23616;BME280;11985;49.404;7.734;2023-06-26T18:12:48;97505.22;;;22.37;41.18
23616;BME280;11985;49.404;7.734;2023-06-26T18:17:52;97514.94;;;22.28;41.43
23616;BME280;11985;49.404;7.734;2023-06-26T18:22:55;97524.13;;;22.11;41.49
23616;BME280;11985;49.404;7.734;2023-06-26T18:27:57;97518.19;;;22.09;41.73
23616;BME280;11985;49.404;7.734;2023-06-26T18:32:59;97515.56;;;21.99;41.53
23616;BME280;11985;49.404;7.734;2023-06-26T18:38:02;97519.06;;;21.90;41.70
23616;BME280;11985;49.404;7.734;2023-06-26T18:43:05;97523.38;;;21.70;41.86
23616;BME280;11985;49.404;7.734;2023-06-26T18:48:06;97528.50;;;21.61;42.23
23616;BME280;11985;49.404;7.734;2023-06-26T18:53:09;97529.56;;;21.66;42.20
23616;BME280;11985;49.404;7.734;2023-06-26T18:58:11;97544.03;;;21.70;42.08
23616;BME280;11985;49.404;7.734;2023-06-26T19:03:13;97548.59;;;21.64;42.10
23616;BME280;11985;49.404;7.734;2023-06-26T19:08:16;97552.34;;;21.53;42.42
23616;BME280;11985;49.404;7.734;2023-06-26T19:13:17;97554.78;;;21.39;42.42
23616;BME280;11985;49.404;7.734;2023-06-26T19:18:19;97553.94;;;21.23;42.43
23616;BME280;11985;49.404;7.734;2023-06-26T19:23:22;97556.34;;;21.04;42.52
23616;BME280;11985;49.404;7.734;2023-06-26T19:28:24;97560.88;;;20.94;43.04
23616;BME280;11985;49.404;7.734;2023-06-26T19:33:25;97565.38;;;20.83;43.41
23616;BME280;11985;49.404;7.734;2023-06-26T19:38:29;97576.53;;;20.54;43.48
23616;BME280;11985;49.404;7.734;2023-06-26T19:43:30;97577.03;;;20.46;43.43
23616;BME280;11985;49.404;7.734;2023-06-26T19:48:32;97590.53;;;20.24;43.86
23616;BME280;11985;49.404;7.734;2023-06-26T19:53:37;97593.97;;;20.15;44.06
23616;BME280;11985;49.404;7.734;2023-06-26T19:58:39;97600.91;;;20.11;44.47
23616;BME280;11985;49.404;7.734;2023-06-26T20:03:41;97599.28;;;20.04;44.56
23616;BME280;11985;49.404;7.734;2023-06-26T20:08:44;97614.72;;;19.97;44.88
23616;BME280;11985;49.404;7.734;2023-06-26T20:13:45;97616.72;;;19.80;45.02
23616;BME280;11985;49.404;7.734;2023-06-26T20:18:47;97623.59;;;19.71;45.12
23616;BME280;11985;49.404;7.734;2023-06-26T20:23:50;97632.72;;;19.75;45.37
23616;BME280;11985;49.404;7.734;2023-06-26T20:28:51;97639.13;;;19.74;45.33
23616;BME280;11985;49.404;7.734;2023-06-26T20:33:53;97641.28;;;19.72;45.48
23616;BME280;11985;49.404;7.734;2023-06-26T20:38:56;97642.28;;;19.66;45.49
23616;BME280;11985;49.404;7.734;2023-06-26T20:43:58;97632.78;;;19.53;45.76
23616;BME280;11985;49.404;7.734;2023-06-26T20:49:00;97636.94;;;19.39;45.88
23616;BME280;11985;49.404;7.734;2023-06-26T20:54:04;97639.78;;;19.27;46.30
23616;BME280;11985;49.404;7.734;2023-06-26T20:59:05;97640.72;;;19.16;46.56
23616;BME280;11985;49.404;7.734;2023-06-26T21:04:07;97644.56;;;19.03;46.91
23616;BME280;11985;49.404;7.734;2023-06-26T21:09:10;97634.03;;;18.91;47.41
23616;BME280;11985;49.404;7.734;2023-06-26T21:14:12;97634.38;;;18.73;47.92
23616;BME280;11985;49.404;7.734;2023-06-26T21:19:13;97641.16;;;18.64;48.10
23616;BME280;11985;49.404;7.734;2023-06-26T21:24:16;97647.00;;;18.61;48.36
23616;BME280;11985;49.404;7.734;2023-06-26T21:29:18;97650.41;;;18.56;48.62
23616;BME280;11985;49.404;7.734;2023-06-26T21:34:20;97658.34;;;18.51;48.93
23616;BME280;11985;49.404;7.734;2023-06-26T21:39:22;97658.19;;;18.41;49.32
23616;BME280;11985;49.404;7.734;2023-06-26T21:44:24;97671.72;;;18.34;49.37
23616;BME280;11985;49.404;7.734;2023-06-26T21:49:26;97678.28;;;18.27;49.60
23616;BME280;11985;49.404;7.734;2023-06-26T21:54:28;97683.75;;;18.20;50.24
23616;BME280;11985;49.404;7.734;2023-06-26T21:59:30;97684.19;;;18.12;50.93
23616;BME280;11985;49.404;7.734;2023-06-26T22:04:32;97692.88;;;18.24;51.55
23616;BME280;11985;49.404;7.734;2023-06-26T22:09:34;97694.94;;;18.17;52.01
23616;BME280;11985;49.404;7.734;2023-06-26T22:14:38;97691.38;;;18.11;52.32
23616;BME280;11985;49.404;7.734;2023-06-26T22:19:39;97690.25;;;18.07;52.49
23616;BME280;11985;49.404;7.734;2023-06-26T22:24:42;97692.66;;;18.09;53.01
23616;BME280;11985;49.404;7.734;2023-06-26T22:29:44;97688.00;;;17.99;53.47
23616;BME280;11985;49.404;7.734;2023-06-26T22:34:46;97688.94;;;17.93;53.62
23616;BME280;11985;49.404;7.734;2023-06-26T22:39:51;97696.00;;;17.71;53.97
23616;BME280;11985;49.404;7.734;2023-06-26T22:44:53;97692.13;;;17.61;53.84
23616;BME280;11985;49.404;7.734;2023-06-26T22:49:54;97691.78;;;17.58;53.64
23616;BME280;11985;49.404;7.734;2023-06-26T22:54:58;97691.59;;;17.48;53.85
23616;BME280;11985;49.404;7.734;2023-06-26T23:00:00;97698.53;;;17.49;53.70
23616;BME280;11985;49.404;7.734;2023-06-26T23:05:09;97697.88;;;17.41;53.71
23616;BME280;11985;49.404;7.734;2023-06-26T23:10:12;97703.03;;;17.31;54.03
23616;BME280;11985;49.404;7.734;2023-06-26T23:15:14;97703.38;;;17.35;54.78
23616;BME280;11985;49.404;7.734;2023-06-26T23:20:16;97710.91;;;17.26;55.41
23616;BME280;11985;49.404;7.734;2023-06-26T23:25:19;97707.59;;;17.19;56.08
23616;BME280;11985;49.404;7.734;2023-06-26T23:30:21;97711.00;;;17.03;56.43
23616;BME280;11985;49.404;7.734;2023-06-26T23:35:23;97714.19;;;16.88;56.88
23616;BME280;11985;49.404;7.734;2023-06-26T23:40:26;97714.97;;;16.88;57.40
23616;BME280;11985;49.404;7.734;2023-06-26T23:45:29;97718.66;;;16.87;57.66
23616;BME280;11985;49.404;7.734;2023-06-26T23:50:31;97715.22;;;16.75;58.00
23616;BME280;11985;49.404;7.734;2023-06-26T23:55:34;97710.69;;;16.64;58.42
